• °C
  • Pobieranie danych...
wx

PRINT OUT SECTION, show »

METAR EPCE 190430Z 01004KT 9999 OVC046 10/07
Q1017 RMK 096 083 8/8=

METAR EPDA 190430Z 04009KT 360V070 9999 OVC048 13/05
Q1017 RMK 133 059 8/8=

METAR EPDE 190430Z 29010KT 7000 -RA BKN007 OVC014 07/06 Q1011 RMK 069
095 8/5=

METAR EPIR 190430Z 28008KT CAVOK 07/06 Q1015 RMK 069 093 4/4=

METAR EPKS 190430Z VRB02KT 9999 OVC050 09/09 Q1016 RMK 093 095 8/8=

METAR EPLK 190430Z 32005KT 9999 FEW011 BKN037 08/08 Q1014
RMK 076 100 7/2=

METAR EPLY 190430Z 30006KT 9999 BKN050 08/07 Q1014 RMK 082 089 7/7=

METAR EPMB 190430Z 36003KT 9999 BKN030 11/08 Q1015 RMK 107 082 7/7=

METAR EPMI 190430Z 33004KT 9999 OVC049 09/07 Q1017 RMK 091 088 8/8=

METAR EPMM 190430Z 36009KT 310V050 9999 BKN008 OVC012 07/07 Q1010
RMK 071 100 8/7=

METAR EPNA 190430Z NIL=

METAR EPOK 190430Z 03012KT 350V060 9999 BKN036 12/05
Q1016 RMK 120 062 7/7=

METAR EPPR 190430Z 36012KT 9999 BKN043 12/05 Q1016 RMK 122 060 7/7=

METAR EPPW 190430Z 32006KT 9999 BKN050 07/07 Q1015 RMK 072 100 5/5=

METAR EPRA 190430Z 32006KT 9999 SCT007 OVC016 07/06 Q1011 RMK 072 094
8/4=

METAR EPSN 190430Z AUTO 35003KT 320V050 9999 SCT040/// OVC047///
10/07 Q1017 RMK 104 081 8/4=

METAR EPTM 190430Z NIL=



IMGW-PIB Sites